WMKM/MKZ METAR and TAF weather

Enter ICAO airport designator
Station Type Date Time Source
WMKM METAR 2020/09/25 06:00 UTC NOAA

WMKM 250600Z VRB04KT 9999 FEW017CB 30/25 Q1010


Station Type Date Time Source
WMKM Decoded METAR 2020/09/25 06:00 UTC NOAA

Malacca, Malaysia (WMKM) 02-16N 102-15E 9M
Sep 25, 2020 - 02:00 AM EDT / 2020.09.25 0600 UTC
Wind: Variable at 5 MPH (4 KT):0
Visibility: greater than 7 mile(s):0
Sky conditions: mostly clear
Weather: Cumulonimbus clouds observed
Temperature: 86 F (30 C)
Heat index: 96.8 F (36.0 C):1
Dew Point: 77 F (25 C)
Relative Humidity: 74%
Pressure (altimeter): 29.83 in. Hg (1010 hPa)
ob: WMKM 250600Z VRB04KT 9999 FEW017CB 30/25 Q1010
cycle: 6

Station Type Date Time Source
WMKM TAF 2020/09/25 06:00 UTC NOAA

TAF WMKM 250500Z 2506/2606 VRB03KT 9999 FEW028

Example: see airport list